Time;durP1;ratioP1;P1;durP2;ratioP2;P2;SDS_P1;SDS_P2;PMS_P1;PMS_P2;Temp;Humidity;BMP_temperature;BMP_pressure;BME280_temperature;BME280_humidity;BME280_pressure;Samples;Min_cycle;Max_cycle;Signal;HPM_P1;HPM_P2
2022/03/24 00:01:56;;;;;;;15.15;8.90;;;;;;;;;;5055927;28;20024;-73
2022/03/24 00:04:22;;;;;;;13.98;8.98;;;;;;;;;;5034827;28;20017;-73
2022/03/24 00:06:49;;;;;;;14.20;8.70;;;;;;;;;;5054602;28;20027;-73
2022/03/24 00:09:15;;;;;;;14.50;9.20;;;;;;;;;;5056045;28;20054;-73
2022/03/24 00:11:42;;;;;;;16.05;9.02;;;;;;;;;;5055688;28;20025;-73
2022/03/24 00:14:08;;;;;;;15.68;9.45;;;;;;;;;;5055426;28;20055;-73
2022/03/24 00:16:35;;;;;;;16.10;9.25;;;;;;;;;;5053936;28;20066;-73
2022/03/24 00:19:01;;;;;;;18.00;8.77;;;;;;;;;;5052569;28;20482;-72
2022/03/24 00:21:27;;;;;;;14.65;8.93;;;;;;;;;;5056148;28;20033;-73
2022/03/24 00:23:54;;;;;;;16.73;9.35;;;;;;;;;;5055546;28;20051;-73
2022/03/24 00:26:20;;;;;;;17.45;9.10;;;;;;;;;;5055448;28;20040;-73
2022/03/24 00:28:46;;;;;;;16.08;9.00;;;;;;;;;;5054985;28;20035;-73
2022/03/24 00:31:14;;;;;;;15.27;8.95;;;;;;;;;;5051452;28;20021;-73
2022/03/24 00:33:40;;;;;;;13.60;8.57;;;;;;;;;;5063312;28;20381;-73
2022/03/24 00:36:09;;;;;;;15.07;8.75;;;;;;;;;;5055468;28;20029;-72
2022/03/24 00:38:36;;;;;;;15.70;8.98;;;;;;;;;;5055462;28;20027;-73
2022/03/24 00:41:02;;;;;;;16.65;9.18;;;;;;;;;;5055580;28;20020;-73
2022/03/24 00:43:29;;;;;;;17.00;9.63;;;;;;;;;;5053082;28;20025;-73
2022/03/24 00:45:55;;;;;;;12.30;8.30;;;;;;;;;;5053335;28;20404;-73
2022/03/24 00:48:24;;;;;;;14.57;8.93;;;;;;;;;;5037813;28;20025;-73
2022/03/24 00:50:50;;;;;;;13.55;8.77;;;;;;;;;;5055130;28;20028;-73
2022/03/24 00:53:17;;;;;;;16.10;8.90;;;;;;;;;;5055893;28;20411;-73
2022/03/24 00:55:43;;;;;;;16.25;9.13;;;;;;;;;;5074740;28;20070;-73
2022/03/24 00:58:10;;;;;;;17.90;9.20;;;;;;;;;;5070785;28;20017;-73
2022/03/24 01:00:40;;;;;;;13.98;9.18;;;;;;;;;;5075809;28;20032;-73
2022/03/24 01:03:07;;;;;;;13.38;8.63;;;;;;;;;;5074965;28;20029;-73
2022/03/24 01:05:37;;;;;;;12.30;8.27;;;;;;;;;;5074994;28;20420;-73
2022/03/24 01:08:08;;;;;;;12.73;8.18;;;;;;;;;;5077580;28;20024;-73
2022/03/24 01:10:35;;;;;;;15.50;8.20;;;;;;;;;;5059518;28;20036;-73
2022/03/24 01:13:01;;;;;;;15.18;8.68;;;;;;;;;;5075484;28;20021;-73
2022/03/24 01:15:30;;;;;;;12.63;7.93;;;;;;;;;;5079103;28;20412;-73
2022/03/24 01:17:59;;;;;;;14.23;9.10;;;;;;;;;;5078650;28;20435;-73
2022/03/24 01:20:27;;;;;;;14.27;8.32;;;;;;;;;;5078872;28;20024;-73
2022/03/24 01:22:53;;;;;;;15.93;9.07;;;;;;;;;;5078778;28;20016;-73
2022/03/24 01:25:19;;;;;;;15.95;8.52;;;;;;;;;;5074301;28;20029;-73
2022/03/24 01:27:46;;;;;;;14.88;8.90;;;;;;;;;;5059721;28;20033;-73
2022/03/24 01:30:12;;;;;;;15.13;8.45;;;;;;;;;;5078072;28;20054;-73
2022/03/24 01:32:39;;;;;;;15.55;8.38;;;;;;;;;;5077866;28;20021;-73
2022/03/24 01:35:07;;;;;;;12.32;7.80;;;;;;;;;;5077938;28;20032;-73
2022/03/24 01:37:35;;;;;;;17.83;7.72;;;;;;;;;;5076311;28;20029;-73
2022/03/24 01:40:01;;;;;;;12.30;7.63;;;;;;;;;;5074993;28;20023;-72
2022/03/24 01:42:27;;;;;;;14.57;8.50;;;;;;;;;;5078551;28;20031;-72
2022/03/24 01:44:56;;;;;;;16.00;9.13;;;;;;;;;;5077723;28;20039;-73
2022/03/24 01:47:22;;;;;;;14.45;8.70;;;;;;;;;;5077585;28;20024;-73
2022/03/24 01:49:49;;;;;;;12.73;8.63;;;;;;;;;;5077614;28;20435;-73
2022/03/24 01:52:17;;;;;;;15.98;8.95;;;;;;;;;;5073232;28;20021;-73
2022/03/24 01:54:44;;;;;;;15.07;9.25;;;;;;;;;;5077853;28;20056;-73
2022/03/24 01:57:11;;;;;;;15.48;9.05;;;;;;;;;;5077469;28;20477;-74
2022/03/24 01:59:38;;;;;;;16.25;9.10;;;;;;;;;;5059751;28;20033;-73
2022/03/24 02:02:05;;;;;;;16.20;9.38;;;;;;;;;;5077268;28;20378;-73
2022/03/24 02:04:35;;;;;;;15.70;8.50;;;;;;;;;;5075227;28;20012;-73
2022/03/24 02:07:05;;;;;;;16.25;9.43;;;;;;;;;;5074828;28;20047;-73
2022/03/24 02:09:33;;;;;;;15.57;9.32;;;;;;;;;;5078241;28;20020;-73
2022/03/24 02:12:00;;;;;;;14.82;9.30;;;;;;;;;;5076764;28;20098;-73
2022/03/24 02:14:29;;;;;;;13.45;8.13;;;;;;;;;;5042986;28;20044;-73
2022/03/24 02:16:56;;;;;;;13.73;7.90;;;;;;;;;;5077025;28;20471;-73
2022/03/24 02:19:23;;;;;;;13.82;8.88;;;;;;;;;;5072978;28;20024;-73
2022/03/24 02:21:51;;;;;;;17.85;8.82;;;;;;;;;;5076416;28;20458;-73
2022/03/24 02:24:18;;;;;;;13.82;8.50;;;;;;;;;;5076184;28;20029;-72
2022/03/24 02:26:45;;;;;;;15.27;8.95;;;;;;;;;;5076762;28;20408;-73
2022/03/24 02:29:12;;;;;;;14.48;8.43;;;;;;;;;;5077011;28;20020;-73
2022/03/24 02:31:39;;;;;;;12.82;8.40;;;;;;;;;;5076106;28;20393;-73
2022/03/24 02:36:52;;;;;;;13.38;8.63;;;;;;;;;;5086502;28;20016;-73
2022/03/24 02:39:18;;;;;;;12.82;8.45;;;;;;;;;;5077286;28;20028;-73
2022/03/24 02:41:46;;;;;;;14.05;8.38;;;;;;;;;;5077025;28;20016;-73
2022/03/24 02:44:17;;;;;;;12.85;8.52;;;;;;;;;;5076865;28;20090;-73
2022/03/24 02:46:47;;;;;;;15.55;8.32;;;;;;;;;;5076424;28;20032;-73
2022/03/24 02:49:21;;;;;;;13.38;8.13;;;;;;;;;;5056712;28;20019;-73
2022/03/24 02:51:49;;;;;;;14.23;8.90;;;;;;;;;;5085526;28;20396;-73
2022/03/24 02:54:15;;;;;;;16.30;9.10;;;;;;;;;;5075741;28;20048;-73
2022/03/24 02:56:42;;;;;;;12.65;8.13;;;;;;;;;;5076663;28;20012;-73
2022/03/24 02:59:08;;;;;;;14.95;8.35;;;;;;;;;;5076337;28;20388;-73
2022/03/24 03:01:36;;;;;;;14.27;8.85;;;;;;;;;;5074600;28;20024;-73
2022/03/24 03:04:02;;;;;;;14.00;8.90;;;;;;;;;;5073012;28;20021;-73
2022/03/24 03:06:29;;;;;;;14.77;8.50;;;;;;;;;;5077101;28;20044;-73
2022/03/24 03:08:55;;;;;;;15.30;9.10;;;;;;;;;;5075811;28;20017;-72
2022/03/24 03:11:21;;;;;;;13.25;8.30;;;;;;;;;;5076480;28;20485;-73
2022/03/24 03:13:48;;;;;;;13.20;8.68;;;;;;;;;;5076861;28;20045;-73
2022/03/24 03:16:14;;;;;;;12.45;8.27;;;;;;;;;;5071853;28;20511;-73
2022/03/24 03:18:44;;;;;;;12.02;7.53;;;;;;;;;;5076692;28;20016;-73
2022/03/24 03:21:10;;;;;;;15.38;8.27;;;;;;;;;;5076451;28;20028;-73
2022/03/24 03:23:38;;;;;;;14.18;8.48;;;;;;;;;;5076014;28;20020;-73
2022/03/24 03:26:07;;;;;;;13.52;8.55;;;;;;;;;;5076027;28;20531;-73
2022/03/24 03:28:34;;;;;;;15.90;8.45;;;;;;;;;;5074436;28;20064;-73
2022/03/24 03:31:00;;;;;;;15.38;8.32;;;;;;;;;;5072434;28;20101;-73
2022/03/24 03:33:27;;;;;;;15.77;8.73;;;;;;;;;;5076641;28;20024;-73
2022/03/24 03:35:54;;;;;;;16.27;8.65;;;;;;;;;;5075925;28;20031;-72
2022/03/24 03:38:20;;;;;;;14.13;8.40;;;;;;;;;;5075576;28;20016;-73
2022/03/24 03:40:47;;;;;;;14.05;8.68;;;;;;;;;;5075398;28;20028;-73
2022/03/24 03:43:14;;;;;;;15.18;8.02;;;;;;;;;;5071409;28;20512;-73
2022/03/24 03:45:44;;;;;;;12.93;8.23;;;;;;;;;;5084025;28;20032;-73
2022/03/24 03:48:11;;;;;;;15.30;8.40;;;;;;;;;;5058325;28;20020;-72
2022/03/24 03:50:37;;;;;;;15.07;8.65;;;;;;;;;;5075595;28;20027;-73
2022/03/24 03:53:04;;;;;;;13.35;8.32;;;;;;;;;;5075390;28;20020;-73
2022/03/24 03:55:30;;;;;;;12.82;8.52;;;;;;;;;;5073160;28;20048;-73
2022/03/24 03:57:57;;;;;;;15.85;8.95;;;;;;;;;;5073363;28;20029;-73
2022/03/24 04:03:08;;;;;;;18.27;9.10;;;;;;;;;;5075393;28;20024;-73
2022/03/24 04:05:35;;;;;;;17.67;8.65;;;;;;;;;;5075234;28;20036;-73
2022/03/24 04:08:04;;;;;;;17.92;8.63;;;;;;;;;;5075158;28;20026;-73
2022/03/24 04:10:32;;;;;;;15.32;8.05;;;;;;;;;;5073001;28;20020;-73
2022/03/24 04:12:58;;;;;;;13.98;8.25;;;;;;;;;;5072714;28;20025;-73
2022/03/24 04:15:25;;;;;;;16.40;8.45;;;;;;;;;;5076032;28;20029;-73
2022/03/24 04:17:51;;;;;;;15.48;8.15;;;;;;;;;;5075082;28;20439;-73
2022/03/24 04:20:20;;;;;;;16.38;7.85;;;;;;;;;;5074692;28;20099;-72
2022/03/24 04:22:50;;;;;;;13.30;8.73;;;;;;;;;;5074886;28;20073;-72
2022/03/24 04:25:17;;;;;;;14.80;9.10;;;;;;;;;;5071204;28;20020;-73
2022/03/24 04:27:44;;;;;;;19.65;8.75;;;;;;;;;;5075389;28;20499;-73
2022/03/24 04:30:14;;;;;;;13.68;7.88;;;;;;;;;;5075429;28;20028;-73
2022/03/24 04:32:41;;;;;;;23.13;10.82;;;;;;;;;;5075275;28;20024;-72
2022/03/24 04:35:08;;;;;;;13.80;8.70;;;;;;;;;;5074749;28;20029;-73
2022/03/24 04:37:35;;;;;;;16.35;9.93;;;;;;;;;;5073599;28;20557;-73
2022/03/24 04:40:01;;;;;;;17.10;9.43;;;;;;;;;;5071763;28;20485;-73
2022/03/24 04:42:28;;;;;;;14.10;8.82;;;;;;;;;;5059893;28;20032;-72
2022/03/24 04:44:54;;;;;;;14.65;9.18;;;;;;;;;;5078847;28;20029;-73
2022/03/24 04:47:22;;;;;;;17.13;9.20;;;;;;;;;;5078956;28;20427;-73
2022/03/24 04:49:48;;;;;;;15.57;9.23;;;;;;;;;;5078913;28;20024;-73
2022/03/24 04:52:15;;;;;;;15.93;9.10;;;;;;;;;;5074568;28;20024;-73
2022/03/24 04:54:41;;;;;;;16.08;8.63;;;;;;;;;;5079264;28;20037;-73
2022/03/24 04:57:08;;;;;;;17.67;8.85;;;;;;;;;;5078903;28;20028;-72
2022/03/24 04:59:34;;;;;;;15.88;9.43;;;;;;;;;;5078876;28;20025;-73
2022/03/24 05:02:01;;;;;;;17.13;9.07;;;;;;;;;;5078609;28;20443;-73
2022/03/24 05:04:27;;;;;;;11.77;8.20;;;;;;;;;;5075725;28;20029;-73
2022/03/24 05:06:54;;;;;;;14.63;8.25;;;;;;;;;;5076824;28;20062;-73
2022/03/24 05:09:20;;;;;;;13.77;8.93;;;;;;;;;;5079066;28;20050;-73
2022/03/24 05:11:46;;;;;;;16.33;9.15;;;;;;;;;;5078531;28;20135;-73
2022/03/24 05:14:13;;;;;;;15.07;8.80;;;;;;;;;;5078401;28;20016;-73
2022/03/24 05:16:39;;;;;;;12.85;8.07;;;;;;;;;;5077588;28;20020;-73
2022/03/24 05:19:06;;;;;;;14.20;8.32;;;;;;;;;;5074834;28;20030;-73
2022/03/24 05:21:32;;;;;;;13.45;8.38;;;;;;;;;;5079055;28;20477;-73
2022/03/24 05:23:59;;;;;;;16.42;9.13;;;;;;;;;;5078288;28;20024;-73
2022/03/24 05:26:26;;;;;;;15.82;8.98;;;;;;;;;;5078153;28;20487;-73
2022/03/24 05:28:54;;;;;;;15.20;8.23;;;;;;;;;;5078050;28;20386;-73
2022/03/24 05:31:25;;;;;;;14.02;8.50;;;;;;;;;;5074531;28;20318;-72
2022/03/24 05:33:51;;;;;;;15.45;8.10;;;;;;;;;;5076688;28;20373;-73
2022/03/24 05:36:17;;;;;;;13.30;8.27;;;;;;;;;;5078696;28;20046;-73
2022/03/24 05:38:44;;;;;;;15.10;8.48;;;;;;;;;;5078216;28;20031;-72
2022/03/24 05:41:12;;;;;;;14.60;8.93;;;;;;;;;;5077825;28;20493;-72
2022/03/24 05:43:39;;;;;;;17.58;8.80;;;;;;;;;;5076887;28;20020;-73
2022/03/24 05:46:05;;;;;;;14.82;9.13;;;;;;;;;;5074113;28;20032;-73
2022/03/24 05:48:33;;;;;;;16.00;8.90;;;;;;;;;;5060343;28;20033;-72
2022/03/24 05:51:00;;;;;;;16.45;9.18;;;;;;;;;;5078130;28;20069;-72
2022/03/24 05:53:26;;;;;;;17.17;9.27;;;;;;;;;;5076634;28;20029;-72
2022/03/24 05:55:53;;;;;;;20.30;9.70;;;;;;;;;;5077728;28;20036;-73
2022/03/24 05:58:20;;;;;;;13.50;9.07;;;;;;;;;;5074181;28;20020;-73
2022/03/24 06:00:47;;;;;;;15.60;9.77;;;;;;;;;;5077246;28;20046;-73
2022/03/24 06:03:15;;;;;;;15.73;8.80;;;;;;;;;;5077415;28;20492;-73
2022/03/24 06:05:42;;;;;;;15.32;9.13;;;;;;;;;;5077510;28;20033;-72
2022/03/24 06:08:09;;;;;;;18.42;8.85;;;;;;;;;;5077730;28;20088;-73
2022/03/24 06:10:35;;;;;;;15.10;8.98;;;;;;;;;;5075806;28;20024;-73
2022/03/24 06:13:01;;;;;;;15.40;9.45;;;;;;;;;;5074533;28;20032;-72
2022/03/24 06:15:29;;;;;;;16.75;9.00;;;;;;;;;;5078170;28;20025;-73
2022/03/24 06:17:55;;;;;;;19.60;9.77;;;;;;;;;;5076934;28;20516;-73
2022/03/24 06:20:22;;;;;;;15.13;8.45;;;;;;;;;;5077225;28;20032;-72
2022/03/24 06:22:53;;;;;;;12.50;8.50;;;;;;;;;;5077501;28;20061;-73
2022/03/24 06:25:19;;;;;;;;;;;;;;;;;;5039402;28;20037;-72
2022/03/24 06:27:46;;;;;;;14.15;9.00;;;;;;;;;;5076993;28;20274;-72
2022/03/24 06:30:14;;;;;;;20.30;11.70;;;;;;;;;;5077104;28;20031;-73
2022/03/24 06:32:40;;;;;;;23.67;13.10;;;;;;;;;;5076833;28;20477;-73
2022/03/24 06:35:08;;;;;;;21.73;11.20;;;;;;;;;;5077007;28;20020;-73
2022/03/24 06:37:39;;;;;;;17.55;9.32;;;;;;;;;;5075294;28;20523;-73
2022/03/24 06:40:14;;;;;;;16.10;8.55;;;;;;;;;;5073108;28;20033;-74
2022/03/24 06:42:40;;;;;;;16.20;9.13;;;;;;;;;;5084299;28;20027;-73
2022/03/24 06:45:07;;;;;;;18.45;9.73;;;;;;;;;;5076641;28;20039;-73
2022/03/24 06:47:35;;;;;;;20.02;10.35;;;;;;;;;;5077070;28;20032;-73
2022/03/24 06:50:02;;;;;;;18.02;11.13;;;;;;;;;;5076885;28;20396;-73
2022/03/24 06:52:29;;;;;;;20.48;8.65;;;;;;;;;;5074351;28;20028;-73
2022/03/24 06:54:55;;;;;;;18.77;9.85;;;;;;;;;;5060208;28;20047;-73
2022/03/24 06:57:22;;;;;;;14.65;7.63;;;;;;;;;;5057259;28;20033;-73
2022/03/24 06:59:48;;;;;;;13.80;9.10;;;;;;;;;;5056233;28;20013;-72
2022/03/24 07:02:15;;;;;;;12.27;7.90;;;;;;;;;;5056865;28;20082;-73
2022/03/24 07:04:41;;;;;;;14.32;9.02;;;;;;;;;;5055901;28;20073;-73
2022/03/24 07:07:08;;;;;;;14.75;8.65;;;;;;;;;;5052888;28;20054;-73
2022/03/24 07:09:37;;;;;;;16.63;7.68;;;;;;;;;;5057130;28;20485;-73
2022/03/24 07:12:04;;;;;;;18.60;8.88;;;;;;;;;;5056180;28;20039;-72
2022/03/24 07:14:30;;;;;;;15.90;8.90;;;;;;;;;;5056461;28;20017;-72
2022/03/24 07:16:57;;;;;;;19.25;9.15;;;;;;;;;;5050826;28;20029;-74
2022/03/24 07:19:25;;;;;;;14.43;7.75;;;;;;;;;;5056655;28;20027;-73
2022/03/24 07:21:54;;;;;;;16.20;8.38;;;;;;;;;;5051200;28;20025;-73
2022/03/24 07:24:22;;;;;;;14.88;8.07;;;;;;;;;;5056524;28;20029;-73
2022/03/24 07:26:48;;;;;;;19.25;9.18;;;;;;;;;;5061372;28;20046;-73
2022/03/24 07:29:14;;;;;;;12.90;8.32;;;;;;;;;;5052643;28;20088;-73
2022/03/24 07:31:41;;;;;;;13.00;8.23;;;;;;;;;;5037244;28;20032;-73
2022/03/24 07:34:07;;;;;;;23.13;8.90;;;;;;;;;;5051664;28;20025;-73
2022/03/24 07:36:34;;;;;;;13.25;7.78;;;;;;;;;;5038436;28;20032;-73
2022/03/24 07:39:00;;;;;;;14.02;7.28;;;;;;;;;;5037476;28;20474;-73
2022/03/24 07:41:27;;;;;;;14.02;8.68;;;;;;;;;;5037409;28;20029;-73
2022/03/24 07:43:53;;;;;;;17.10;8.80;;;;;;;;;;5049213;28;20031;-73
2022/03/24 07:46:19;;;;;;;12.55;8.10;;;;;;;;;;5053677;28;20051;-73
2022/03/24 07:48:48;;;;;;;15.45;8.50;;;;;;;;;;5054542;28;20021;-73
2022/03/24 07:51:14;;;;;;;11.65;7.45;;;;;;;;;;5055533;28;20028;-73
2022/03/24 07:53:44;;;;;;;11.18;7.97;;;;;;;;;;5059431;28;20040;-71
2022/03/24 07:56:11;;;;;;;10.50;6.75;;;;;;;;;;5075011;28;20017;-71
2022/03/24 07:58:39;;;;;;;12.60;7.30;;;;;;;;;;5071923;28;20027;-71
2022/03/24 08:01:06;;;;;;;10.27;7.35;;;;;;;;;;5071376;28;20091;-71
2022/03/24 08:03:32;;;;;;;13.57;7.15;;;;;;;;;;5075829;28;20020;-71
2022/03/24 08:05:59;;;;;;;15.20;7.75;;;;;;;;;;5074711;28;20567;-71
2022/03/24 08:08:26;;;;;;;9.77;7.25;;;;;;;;;;5074816;28;20489;-71
2022/03/24 08:11:00;;;;;;;11.80;7.57;;;;;;;;;;5074869;28;20501;-71
2022/03/24 08:13:26;;;;;;;16.70;8.55;;;;;;;;;;5071920;28;20024;-71
2022/03/24 08:15:54;;;;;;;11.02;7.43;;;;;;;;;;5072249;28;20485;-71
2022/03/24 08:18:20;;;;;;;12.02;7.43;;;;;;;;;;5075677;28;20031;-70
2022/03/24 08:20:48;;;;;;;10.90;7.38;;;;;;;;;;5074921;28;20028;-70
2022/03/24 08:23:16;;;;;;;9.13;7.30;;;;;;;;;;5075144;28;20020;-71
2022/03/24 08:25:44;;;;;;;9.63;6.90;;;;;;;;;;5070954;28;20031;-71
2022/03/24 08:28:12;;;;;;;10.88;7.25;;;;;;;;;;5078714;28;20035;-71
2022/03/24 08:30:39;;;;;;;9.38;6.53;;;;;;;;;;5040908;28;20032;-71
2022/03/24 08:33:05;;;;;;;10.95;6.78;;;;;;;;;;5071623;28;20031;-70
2022/03/24 08:35:32;;;;;;;10.95;6.53;;;;;;;;;;5074640;28;20017;-71
2022/03/24 08:37:59;;;;;;;9.77;7.40;;;;;;;;;;5074539;28;20034;-71
2022/03/24 08:40:26;;;;;;;13.32;7.20;;;;;;;;;;5071718;28;20025;-71
2022/03/24 08:42:52;;;;;;;11.77;7.32;;;;;;;;;;5071734;28;20020;-71
2022/03/24 08:45:18;;;;;;;12.30;7.57;;;;;;;;;;5084062;28;20072;-71
2022/03/24 08:47:45;;;;;;;10.50;7.30;;;;;;;;;;5074603;28;20058;-71
2022/03/24 08:50:12;;;;;;;11.52;7.35;;;;;;;;;;5055666;28;20028;-71
2022/03/24 08:52:38;;;;;;;16.55;7.72;;;;;;;;;;5085283;28;20519;-71
2022/03/24 08:55:08;;;;;;;12.45;7.75;;;;;;;;;;5055546;28;20524;-71
2022/03/24 08:57:35;;;;;;;11.63;7.37;;;;;;;;;;5055293;28;20041;-71
2022/03/24 09:00:04;;;;;;;12.13;7.32;;;;;;;;;;5054769;28;20513;-71
2022/03/24 09:02:30;;;;;;;15.02;8.40;;;;;;;;;;5050798;28;20456;-71
2022/03/24 09:04:57;;;;;;;14.18;8.32;;;;;;;;;;5035895;28;20042;-71
2022/03/24 09:07:23;;;;;;;15.40;7.78;;;;;;;;;;5051307;28;20037;-72
2022/03/24 09:09:50;;;;;;;9.30;7.22;;;;;;;;;;5052541;28;20026;-71
2022/03/24 09:12:17;;;;;;;13.63;8.10;;;;;;;;;;5052883;28;20035;-71
2022/03/24 09:14:44;;;;;;;9.52;7.47;;;;;;;;;;5055113;28;20017;-71
2022/03/24 09:17:11;;;;;;;10.55;7.38;;;;;;;;;;5054616;28;20025;-71
2022/03/24 09:19:37;;;;;;;11.00;7.43;;;;;;;;;;5048535;28;20037;-71
2022/03/24 09:22:07;;;;;;;14.65;8.60;;;;;;;;;;5066316;28;20100;-71
2022/03/24 09:24:34;;;;;;;14.40;9.07;;;;;;;;;;5055401;28;20028;-71
2022/03/24 09:27:01;;;;;;;20.02;12.68;;;;;;;;;;5054181;28;20033;-71
2022/03/24 09:29:27;;;;;;;15.82;8.68;;;;;;;;;;5056106;28;20024;-71
2022/03/24 09:31:53;;;;;;;12.10;9.52;;;;;;;;;;5057139;28;20021;-71
2022/03/24 09:34:20;;;;;;;11.88;8.77;;;;;;;;;;5053563;28;20037;-71
2022/03/24 09:36:47;;;;;;;11.63;7.25;;;;;;;;;;5057408;28;20033;-70
2022/03/24 09:39:15;;;;;;;12.13;7.50;;;;;;;;;;5068998;28;20436;-70
2022/03/24 09:41:45;;;;;;;10.88;6.93;;;;;;;;;;5062056;28;20013;-71
2022/03/24 09:44:11;;;;;;;7.63;5.47;;;;;;;;;;5058235;28;20017;-71
2022/03/24 09:46:38;;;;;;;9.70;6.00;;;;;;;;;;5056413;28;20021;-71
2022/03/24 09:49:04;;;;;;;8.65;5.72;;;;;;;;;;5054526;28;20037;-71
2022/03/24 09:51:31;;;;;;;7.13;5.60;;;;;;;;;;5057323;28;20037;-70
2022/03/24 09:53:57;;;;;;;7.55;5.72;;;;;;;;;;5063580;28;20037;-71
2022/03/24 09:56:24;;;;;;;9.30;6.28;;;;;;;;;;5072662;28;20024;-71
2022/03/24 09:58:50;;;;;;;10.98;6.15;;;;;;;;;;5071804;28;20035;-71
2022/03/24 10:01:17;;;;;;;10.60;5.70;;;;;;;;;;5087364;28;20028;-71
2022/03/24 10:04:05;;;;;;;10.88;5.78;;;;;;;;;;5081116;28;20481;-70
2022/03/24 10:06:32;;;;;;;12.48;5.45;;;;;;;;;;5075837;28;20580;-71
2022/03/24 10:08:59;;;;;;;7.25;4.90;;;;;;;;;;5075769;28;20035;-70
2022/03/24 10:11:26;;;;;;;6.60;4.75;;;;;;;;;;5075863;28;20019;-70
2022/03/24 10:13:58;;;;;;;6.13;5.00;;;;;;;;;;5075729;28;20030;-71
2022/03/24 10:16:33;;;;;;;6.60;5.07;;;;;;;;;;5066935;28;20046;-71
2022/03/24 10:19:01;;;;;;;5.95;4.32;;;;;;;;;;5073396;28;20423;-71
2022/03/24 10:21:29;;;;;;;9.30;4.78;;;;;;;;;;5076432;28;20025;-71
2022/03/24 10:23:57;;;;;;;5.45;3.97;;;;;;;;;;5075504;28;20036;-71
2022/03/24 10:26:39;;;;;;;6.97;4.43;;;;;;;;;;5075633;28;20021;-71
2022/03/24 10:29:05;;;;;;;6.50;4.18;;;;;;;;;;5075924;28;20085;-71
2022/03/24 10:31:35;;;;;;;6.07;4.22;;;;;;;;;;5073284;28;20023;-71
2022/03/24 10:34:02;;;;;;;6.72;4.32;;;;;;;;;;5072667;28;20435;-71
2022/03/24 10:36:29;;;;;;;7.75;4.60;;;;;;;;;;5076477;28;20527;-71
2022/03/24 10:38:59;;;;;;;5.82;4.18;;;;;;;;;;5075040;28;20042;-71
2022/03/24 10:41:26;;;;;;;6.57;4.47;;;;;;;;;;5075149;28;20024;-71
2022/03/24 10:43:57;;;;;;;8.70;4.85;;;;;;;;;;5075705;28;20032;-71
2022/03/24 10:46:25;;;;;;;7.25;4.57;;;;;;;;;;5072071;28;20058;-71
2022/03/24 10:48:52;;;;;;;7.55;4.60;;;;;;;;;;5072666;28;20043;-71
2022/03/24 10:51:22;;;;;;;5.88;4.47;;;;;;;;;;5075278;28;20025;-71
2022/03/24 10:53:49;;;;;;;7.15;4.70;;;;;;;;;;5074684;28;20045;-71
2022/03/24 10:56:28;;;;;;;9.80;4.30;;;;;;;;;;5074680;28;20042;-71
2022/03/24 10:59:00;;;;;;;5.65;4.22;;;;;;;;;;5075298;28;20031;-71
2022/03/24 11:01:27;;;;;;;7.07;4.80;;;;;;;;;;5070373;28;20020;-71
2022/03/24 11:03:53;;;;;;;4.80;4.28;;;;;;;;;;5071386;28;20481;-71
2022/03/24 11:06:22;;;;;;;5.88;4.53;;;;;;;;;;5075055;28;20038;-71
2022/03/24 11:08:56;;;;;;;7.30;4.32;;;;;;;;;;5074401;28;20036;-71
2022/03/24 11:11:23;;;;;;;10.55;4.18;;;;;;;;;;5074701;28;20386;-71
2022/03/24 11:13:53;;;;;;;7.85;4.93;;;;;;;;;;5074686;28;20024;-71
2022/03/24 11:16:20;;;;;;;5.28;4.53;;;;;;;;;;5069864;28;20036;-71
2022/03/24 11:18:48;;;;;;;5.60;3.92;;;;;;;;;;5074182;28;20041;-70
2022/03/24 11:21:17;;;;;;;11.80;4.40;;;;;;;;;;5074359;28;20037;-71
2022/03/24 11:23:45;;;;;;;7.70;4.65;;;;;;;;;;5074363;28;20024;-71
2022/03/24 11:26:12;;;;;;;6.18;4.65;;;;;;;;;;5074614;28;20409;-71
2022/03/24 11:28:39;;;;;;;9.23;4.10;;;;;;;;;;5068649;28;20027;-71
2022/03/24 11:31:07;;;;;;;6.43;4.35;;;;;;;;;;5069373;28;20024;-71
2022/03/24 11:33:37;;;;;;;12.63;4.40;;;;;;;;;;5070129;28;20027;-71
2022/03/24 11:36:04;;;;;;;9.30;4.73;;;;;;;;;;5073730;28;20513;-71
2022/03/24 11:38:30;;;;;;;7.10;4.55;;;;;;;;;;5074489;28;20025;-71
2022/03/24 11:41:00;;;;;;;7.75;4.80;;;;;;;;;;5074108;28;20034;-70
2022/03/24 11:43:27;;;;;;;5.95;4.47;;;;;;;;;;5071349;28;20400;-71
2022/03/24 11:45:54;;;;;;;7.47;4.45;;;;;;;;;;5072351;28;20023;-71
2022/03/24 11:48:35;;;;;;;4.82;3.70;;;;;;;;;;5075130;28;20029;-71
2022/03/24 11:51:17;;;;;;;8.05;3.75;;;;;;;;;;5073829;28;20031;-71
2022/03/24 11:53:44;;;;;;;5.53;4.43;;;;;;;;;;5069479;28;20024;-71
2022/03/24 11:56:11;;;;;;;8.48;3.63;;;;;;;;;;5054570;28;20036;-71
2022/03/24 11:58:44;;;;;;;5.90;3.85;;;;;;;;;;5053087;28;20027;-71
2022/03/24 12:01:19;;;;;;;5.22;3.70;;;;;;;;;;5050191;28;20024;-71
2022/03/24 12:03:48;;;;;;;5.13;3.80;;;;;;;;;;5048450;28;20523;-71
2022/03/24 12:06:16;;;;;;;5.97;3.60;;;;;;;;;;5053875;28;20033;-71
2022/03/24 12:08:45;;;;;;;3.95;3.40;;;;;;;;;;5054396;28;20036;-71
2022/03/24 12:11:30;;;;;;;4.65;3.58;;;;;;;;;;5054300;28;20078;-71
2022/03/24 12:13:56;;;;;;;4.05;3.60;;;;;;;;;;5054205;28;20023;-71
2022/03/24 12:16:24;;;;;;;8.63;3.78;;;;;;;;;;5050938;28;20037;-71
2022/03/24 12:18:52;;;;;;;12.27;3.47;;;;;;;;;;5052831;28;20489;-71
2022/03/24 12:21:20;;;;;;;5.60;3.67;;;;;;;;;;5053680;28;20027;-71
2022/03/24 12:24:05;;;;;;;5.15;3.80;;;;;;;;;;5054304;28;20017;-71
2022/03/24 12:26:36;;;;;;;5.55;3.50;;;;;;;;;;5054278;28;20025;-71
2022/03/24 12:29:12;;;;;;;4.22;3.40;;;;;;;;;;5054607;28;20023;-71
2022/03/24 12:32:05;;;;;;;4.97;3.40;;;;;;;;;;5053157;28;20028;-70
2022/03/24 12:34:43;;;;;;;4.95;3.30;;;;;;;;;;5036690;28;20037;-71
2022/03/24 12:37:30;;;;;;;4.30;3.40;;;;;;;;;;5049095;28;20227;-71
2022/03/24 12:40:06;;;;;;;6.05;3.88;;;;;;;;;;5048224;28;20037;-73
2022/03/24 12:42:55;;;;;;;7.57;3.38;;;;;;;;;;5053421;28;20021;-69
2022/03/24 12:45:27;;;;;;;5.35;3.50;;;;;;;;;;5022745;28;20387;-70
2022/03/24 12:47:58;;;;;;;5.50;3.33;;;;;;;;;;5048047;28;20025;-71
2022/03/24 12:50:30;;;;;;;8.27;6.13;;;;;;;;;;5053359;28;20019;-71
2022/03/24 12:53:00;;;;;;;5.70;3.70;;;;;;;;;;5023461;28;20047;-70
2022/03/24 12:55:27;;;;;;;;;;;;;;;;;;5076268;28;20041;-70
2022/03/24 12:58:00;;;;;;;4.15;2.95;;;;;;;;;;5072453;28;19916;-71
2022/03/24 13:00:30;;;;;;;5.93;5.05;;;;;;;;;;5072450;28;20033;-70
2022/03/24 13:03:01;;;;;;;8.23;3.17;;;;;;;;;;5072231;28;20397;-71
2022/03/24 13:05:30;;;;;;;8.00;3.00;;;;;;;;;;5076843;28;20027;-69
2022/03/24 13:07:56;;;;;;;4.85;2.88;;;;;;;;;;5076185;28;20025;-71
2022/03/24 13:10:24;;;;;;;6.63;2.88;;;;;;;;;;5070710;28;20481;-70
2022/03/24 13:12:55;;;;;;;5.60;2.90;;;;;;;;;;5076381;28;20035;-70
2022/03/24 13:15:21;;;;;;;4.97;2.58;;;;;;;;;;5077006;28;20020;-70
2022/03/24 13:17:51;;;;;;;5.43;2.42;;;;;;;;;;5076608;28;20040;-70
2022/03/24 13:20:18;;;;;;;3.27;2.57;;;;;;;;;;5076737;28;20025;-71
2022/03/24 13:22:47;;;;;;;3.70;2.78;;;;;;;;;;5076351;28;20270;-70
2022/03/24 13:25:15;;;;;;;4.65;2.80;;;;;;;;;;5089095;28;20027;-70
2022/03/24 13:27:43;;;;;;;4.43;2.95;;;;;;;;;;5077430;28;20036;-71
2022/03/24 13:30:11;;;;;;;5.28;2.70;;;;;;;;;;5076706;28;20435;-70
2022/03/24 13:32:38;;;;;;;4.03;2.78;;;;;;;;;;5076714;28;20028;-70
2022/03/24 13:35:05;;;;;;;3.70;2.75;;;;;;;;;;5077068;28;20474;-70
2022/03/24 13:37:36;;;;;;;3.03;2.45;;;;;;;;;;5072915;28;20060;-70
2022/03/24 13:40:04;;;;;;;3.75;2.35;;;;;;;;;;5072115;28;20426;-71
2022/03/24 13:42:30;;;;;;;3.17;2.47;;;;;;;;;;5077501;28;20519;-70
2022/03/24 13:44:57;;;;;;;2.80;2.28;;;;;;;;;;5081554;28;20032;-70
2022/03/24 13:47:25;;;;;;;2.92;2.63;;;;;;;;;;5082062;28;20019;-70
2022/03/24 13:49:59;;;;;;;5.32;3.13;;;;;;;;;;5053547;28;20594;-70
2022/03/24 13:52:36;;;;;;;3.55;2.70;;;;;;;;;;5057970;28;20509;-70
2022/03/24 13:55:05;;;;;;;5.35;3.15;;;;;;;;;;5072946;28;20052;-70
2022/03/24 13:57:31;;;;;;;6.05;2.67;;;;;;;;;;5076968;28;20036;-70
2022/03/24 13:59:58;;;;;;;3.65;2.60;;;;;;;;;;5076067;28;20020;-70
2022/03/24 14:02:27;;;;;;;5.57;2.55;;;;;;;;;;5075663;28;20020;-70
2022/03/24 14:05:07;;;;;;;4.90;2.92;;;;;;;;;;5076047;28;20031;-70
2022/03/24 14:07:33;;;;;;;3.25;2.65;;;;;;;;;;5071629;28;20020;-70
2022/03/24 14:10:00;;;;;;;5.50;2.80;;;;;;;;;;5088104;28;20020;-70
2022/03/24 14:12:27;;;;;;;3.33;2.70;;;;;;;;;;5074922;28;20024;-70
2022/03/24 14:14:54;;;;;;;7.03;2.90;;;;;;;;;;5074678;28;20025;-70
2022/03/24 14:17:24;;;;;;;3.28;2.55;;;;;;;;;;5075794;28;20039;-70
2022/03/24 14:19:55;;;;;;;4.10;2.85;;;;;;;;;;5075675;28;20038;-70
2022/03/24 14:22:24;;;;;;;3.13;2.38;;;;;;;;;;5072055;28;20040;-71
2022/03/24 14:24:51;;;;;;;4.00;2.47;;;;;;;;;;5074802;28;20420;-71
2022/03/24 14:27:19;;;;;;;3.35;2.10;;;;;;;;;;5075560;28;20031;-70
2022/03/24 14:30:01;;;;;;;4.07;2.42;;;;;;;;;;5073340;28;20024;-70
2022/03/24 14:32:28;;;;;;;2.63;2.40;;;;;;;;;;5075626;28;20029;-70
2022/03/24 14:35:05;;;;;;;5.45;2.45;;;;;;;;;;5074794;28;20024;-70
2022/03/24 14:37:42;;;;;;;5.30;2.67;;;;;;;;;;5073322;28;20035;-70
2022/03/24 14:40:09;;;;;;;3.97;2.65;;;;;;;;;;5071698;28;20023;-71
2022/03/24 14:42:36;;;;;;;4.97;2.58;;;;;;;;;;5076227;28;20032;-70
2022/03/24 14:45:04;;;;;;;3.78;2.75;;;;;;;;;;5082978;28;20080;-70
2022/03/24 14:47:31;;;;;;;2.80;2.25;;;;;;;;;;5080357;28;20351;-70